createdAt,value
2023-09-16T00:02:19.030Z,90.72
2023-09-16T00:04:46.886Z,91.55
2023-09-16T00:07:14.748Z,91.77
2023-09-16T00:09:43.424Z,91.71
2023-09-16T00:12:11.203Z,92.52
2023-09-16T00:14:39.384Z,92.22
2023-09-16T00:17:10.330Z,91.69
2023-09-16T00:19:38.117Z,91.65
2023-09-16T00:22:11.302Z,90.90
2023-09-16T00:24:38.986Z,90.53
2023-09-16T00:27:08.528Z,90.24
2023-09-16T00:29:36.597Z,90.07
2023-09-16T00:32:05.177Z,90.32
2023-09-16T00:34:34.610Z,90.83
2023-09-16T00:37:02.425Z,90.26
2023-09-16T00:39:30.256Z,88.30
2023-09-16T00:41:58.216Z,88.15
2023-09-16T00:44:26.126Z,88.44
2023-09-16T00:46:53.729Z,88.74
2023-09-16T00:49:21.387Z,88.64
2023-09-16T00:51:50.624Z,88.49
2023-09-16T00:54:18.422Z,87.96
2023-09-16T00:56:46.823Z,87.65
2023-09-16T00:59:14.815Z,87.02
2023-09-16T01:01:46.164Z,85.98
2023-09-16T01:04:14.114Z,85.08
2023-09-16T01:06:44.259Z,85.43
2023-09-16T01:09:13.517Z,85.21
2023-09-16T01:11:41.197Z,84.84
2023-09-16T01:14:12.414Z,84.88
2023-09-16T01:16:45.605Z,85.74
2023-09-16T01:19:21.190Z,86.03
2023-09-16T01:21:50.278Z,86.81
2023-09-16T01:24:20.980Z,86.99
2023-09-16T01:26:50.013Z,87.31
2023-09-16T01:29:19.704Z,87.29
2023-09-16T01:31:48.385Z,88.19
2023-09-16T01:34:24.443Z,87.78
2023-09-16T01:36:54.453Z,87.85
2023-09-16T01:39:24.484Z,88.38
2023-09-16T01:41:55.514Z,89.39
2023-09-16T01:44:23.279Z,91.47
2023-09-16T01:46:50.915Z,92.53
2023-09-16T01:49:18.634Z,93.51
2023-09-16T01:51:46.343Z,94.18
2023-09-16T01:54:14.104Z,93.66
2023-09-16T01:56:42.049Z,93.60
2023-09-16T01:59:10.992Z,93.99
2023-09-16T02:01:38.712Z,93.90
2023-09-16T02:04:07.428Z,94.61
2023-09-16T02:06:35.118Z,95.50
2023-09-16T02:09:02.740Z,95.79
2023-09-16T02:11:31.948Z,95.75
2023-09-16T02:14:00.538Z,95.13
2023-09-16T02:16:29.652Z,95.13
2023-09-16T02:18:57.342Z,95.36
2023-09-16T02:21:25.109Z,95.72
2023-09-16T02:23:52.982Z,96.73
2023-09-16T02:26:20.778Z,95.87
2023-09-16T02:28:48.743Z,96.27
2023-09-16T02:31:17.144Z,95.81
2023-09-16T02:33:46.255Z,96.58
2023-09-16T02:36:14.063Z,96.79
2023-09-16T02:38:41.792Z,97.83
2023-09-16T02:41:09.460Z,97.12
2023-09-16T02:43:37.217Z,97.03
2023-09-16T02:46:04.959Z,98.38
2023-09-16T02:48:32.651Z,97.41
2023-09-16T02:51:01.641Z,96.33
2023-09-16T02:53:29.366Z,96.53
2023-09-16T02:55:57.459Z,97.06
2023-09-16T02:58:25.210Z,97.90
2023-09-16T03:00:53.142Z,98.10
2023-09-16T03:03:20.982Z,98.35
2023-09-16T03:05:48.701Z,98.44
2023-09-16T03:08:17.694Z,98.27
2023-09-16T03:10:46.228Z,99.06
2023-09-16T03:13:13.869Z,98.85
2023-09-16T03:15:46.475Z,99.71
2023-09-16T03:18:14.546Z,100.00
2023-09-16T03:20:42.270Z,100.00
2023-09-16T03:23:10.134Z,100.00
2023-09-16T03:25:39.210Z,100.00
2023-09-16T03:28:06.860Z,100.00
2023-09-16T03:30:34.775Z,100.00
2023-09-16T03:33:03.451Z,100.00
2023-09-16T03:35:32.360Z,100.00
2023-09-16T03:38:00.382Z,100.00
2023-09-16T03:40:28.151Z,100.00
2023-09-16T03:42:58.131Z,100.00
2023-09-16T03:45:29.562Z,100.00
2023-09-16T03:47:57.991Z,100.00
2023-09-16T03:50:25.815Z,100.00
2023-09-16T03:52:53.509Z,100.00
2023-09-16T03:55:21.216Z,100.00
2023-09-16T03:57:48.833Z,100.00
2023-09-16T04:00:18.116Z,100.00
2023-09-16T04:02:45.838Z,100.00
2023-09-16T04:05:14.755Z,100.00
2023-09-16T04:07:42.453Z,100.00
2023-09-16T04:10:10.856Z,100.00
2023-09-16T04:12:38.558Z,100.00
2023-09-16T04:15:07.718Z,100.00
2023-09-16T04:17:36.868Z,100.00
2023-09-16T04:20:06.976Z,100.00
2023-09-16T04:22:34.864Z,100.00
2023-09-16T04:25:02.936Z,100.00
2023-09-16T04:27:30.840Z,100.00
2023-09-16T04:29:58.481Z,100.00
2023-09-16T04:32:26.335Z,100.00
2023-09-16T04:34:58.613Z,100.00
2023-09-16T04:37:26.471Z,100.00
2023-09-16T04:39:54.385Z,100.00
2023-09-16T04:42:22.075Z,100.00
2023-09-16T04:44:49.822Z,100.00
2023-09-16T04:47:20.537Z,100.00
2023-09-16T04:49:49.383Z,100.00
2023-09-16T04:52:18.458Z,100.00
2023-09-16T04:54:46.671Z,100.00
2023-09-16T04:57:14.943Z,100.00
2023-09-16T04:59:44.221Z,100.00
2023-09-16T05:02:11.887Z,100.00
2023-09-16T05:04:39.539Z,100.00
2023-09-16T05:07:07.444Z,100.00
2023-09-16T05:09:36.832Z,100.00
2023-09-16T05:12:04.773Z,100.00
2023-09-16T05:14:32.388Z,100.00
2023-09-16T05:17:00.189Z,100.00
2023-09-16T05:19:27.968Z,100.00
2023-09-16T05:21:55.633Z,100.00
2023-09-16T05:24:23.301Z,100.00
2023-09-16T05:26:52.359Z,99.49
2023-09-16T05:29:20.139Z,98.70
2023-09-16T05:31:47.886Z,98.10
2023-09-16T05:34:15.558Z,97.26
2023-09-16T05:36:43.319Z,96.06
2023-09-16T05:39:10.991Z,95.16
2023-09-16T05:41:38.929Z,94.33
2023-09-16T05:44:08.174Z,92.98
2023-09-16T05:46:35.900Z,92.53
2023-09-16T05:49:08.928Z,91.07
2023-09-16T05:51:36.923Z,90.86
2023-09-16T05:54:04.901Z,89.97
2023-09-16T05:56:33.842Z,87.80
2023-09-16T05:59:01.784Z,87.89
2023-09-16T06:01:30.846Z,87.11
2023-09-16T06:03:58.611Z,85.20
2023-09-16T06:06:26.741Z,84.41
2023-09-16T06:08:54.362Z,82.48
2023-09-16T06:11:27.199Z,75.26
2023-09-16T06:13:54.888Z,70.09
2023-09-16T06:16:22.645Z,62.44
2023-09-16T06:18:52.046Z,59.43
2023-09-16T06:21:19.939Z,57.58
2023-09-16T06:23:47.918Z,56.59
2023-09-16T06:26:15.638Z,52.97
2023-09-16T06:28:43.619Z,52.47
2023-09-16T06:31:11.259Z,51.03
2023-09-16T06:33:39.135Z,51.74
2023-09-16T06:36:08.493Z,50.51
2023-09-16T06:38:36.183Z,49.78
2023-09-16T06:41:04.456Z,52.00
2023-09-16T06:43:32.088Z,48.89
2023-09-16T06:46:00.301Z,48.50
2023-09-16T06:48:28.010Z,47.77
2023-09-16T06:50:56.431Z,47.47
2023-09-16T06:53:25.472Z,47.25
2023-09-16T06:55:55.614Z,46.37
2023-09-16T06:58:24.602Z,47.09
2023-09-16T07:00:52.407Z,45.46
2023-09-16T07:03:20.349Z,45.71
2023-09-16T07:05:48.588Z,45.71
2023-09-16T07:08:16.532Z,44.52
2023-09-16T07:10:45.586Z,45.34
2023-09-16T07:13:13.579Z,44.23
2023-09-16T07:15:41.345Z,43.24
2023-09-16T07:18:09.169Z,44.87
2023-09-16T07:20:37.181Z,44.53
2023-09-16T07:23:05.434Z,46.25
2023-09-16T07:25:33.160Z,48.26
2023-09-16T07:28:04.137Z,49.49
2023-09-16T07:30:31.819Z,52.00
2023-09-16T07:32:59.563Z,51.55
2023-09-16T07:35:27.292Z,49.40
2023-09-16T07:37:54.945Z,47.15
2023-09-16T07:40:22.702Z,46.07
2023-09-16T07:42:50.395Z,44.21
2023-09-16T07:45:19.717Z,42.92
2023-09-16T07:47:47.511Z,44.73
2023-09-16T07:50:15.198Z,47.05
2023-09-16T07:52:43.340Z,45.11
2023-09-16T07:55:11.302Z,47.78
2023-09-16T07:57:38.969Z,47.50
2023-09-16T08:00:08.585Z,50.18
2023-09-16T08:02:37.723Z,48.35
2023-09-16T08:05:06.351Z,48.91
2023-09-16T08:07:35.963Z,48.85
2023-09-16T08:10:03.712Z,47.12
2023-09-16T08:12:31.482Z,49.16
2023-09-16T08:15:00.131Z,51.53
2023-09-16T08:17:27.820Z,51.23
2023-09-16T08:19:56.814Z,48.28
2023-09-16T08:22:24.556Z,48.68
2023-09-16T08:24:52.391Z,50.62
2023-09-16T08:27:21.224Z,50.60
2023-09-16T08:29:50.627Z,48.30
2023-09-16T08:32:18.469Z,50.00
2023-09-16T08:34:46.130Z,52.54
2023-09-16T08:37:15.210Z,50.37
2023-09-16T08:39:43.227Z,51.67
2023-09-16T08:42:17.074Z,53.01
2023-09-16T08:44:46.502Z,55.44
2023-09-16T08:47:17.570Z,56.73
2023-09-16T08:49:51.760Z,54.59
2023-09-16T08:52:22.057Z,51.86
2023-09-16T08:54:51.341Z,51.78
2023-09-16T08:57:20.611Z,50.80
2023-09-16T08:59:49.360Z,52.02
2023-09-16T09:02:17.564Z,53.20
2023-09-16T09:04:45.404Z,56.19
2023-09-16T09:07:14.632Z,55.43
2023-09-16T09:09:43.753Z,58.48
2023-09-16T09:12:12.084Z,57.06
2023-09-16T09:14:39.990Z,57.85
2023-09-16T09:17:09.888Z,56.20
2023-09-16T09:19:39.185Z,55.85
2023-09-16T09:22:07.296Z,58.02
2023-09-16T09:24:35.087Z,59.73
2023-09-16T09:27:04.133Z,60.72
2023-09-16T09:29:31.871Z,60.48
2023-09-16T09:31:59.902Z,60.29
2023-09-16T09:34:30.291Z,60.16
2023-09-16T09:36:57.961Z,61.38
2023-09-16T09:39:25.747Z,61.20
2023-09-16T09:41:54.045Z,60.65
2023-09-16T09:44:24.217Z,60.82
2023-09-16T09:46:51.942Z,60.93
2023-09-16T09:49:20.540Z,59.67
2023-09-16T09:51:49.552Z,61.37
2023-09-16T09:54:18.207Z,63.01
2023-09-16T09:56:46.469Z,62.80
2023-09-16T09:59:14.461Z,62.83
2023-09-16T10:01:43.971Z,63.10
2023-09-16T10:04:11.928Z,62.87
2023-09-16T10:06:40.009Z,62.85
2023-09-16T10:09:08.194Z,61.81
2023-09-16T10:11:37.398Z,63.48
2023-09-16T10:14:05.400Z,64.32
2023-09-16T10:16:33.210Z,62.87
2023-09-16T10:19:02.342Z,61.21
2023-09-16T10:21:30.058Z,60.81
2023-09-16T10:23:58.289Z,60.57
2023-09-16T10:26:25.952Z,59.23
2023-09-16T10:28:56.359Z,59.20
2023-09-16T10:31:25.243Z,60.71
2023-09-16T10:33:54.927Z,60.23
2023-09-16T10:36:24.265Z,59.46
2023-09-16T10:38:52.636Z,59.38
2023-09-16T10:41:22.500Z,58.50
2023-09-16T10:43:50.802Z,58.21
2023-09-16T10:46:19.098Z,58.01
2023-09-16T10:48:47.177Z,58.53
2023-09-16T10:51:20.162Z,59.29
2023-09-16T10:53:53.676Z,59.77
2023-09-16T10:56:31.999Z,58.32
2023-09-16T10:59:03.723Z,59.33
2023-09-16T11:01:37.423Z,59.24
2023-09-16T11:04:10.285Z,58.58
2023-09-16T11:06:38.156Z,58.29
2023-09-16T11:09:07.596Z,57.96
2023-09-16T11:11:36.400Z,58.46
2023-09-16T11:14:06.479Z,58.64
2023-09-16T11:16:44.894Z,58.71
2023-09-16T11:19:15.932Z,60.70
2023-09-16T11:21:44.180Z,58.78
2023-09-16T11:24:14.514Z,59.65
2023-09-16T11:26:42.460Z,59.12
2023-09-16T11:29:20.552Z,58.45
2023-09-16T11:31:48.605Z,57.71
2023-09-16T11:34:19.477Z,57.60
2023-09-16T11:36:52.983Z,58.79
2023-09-16T11:39:26.001Z,58.77
2023-09-16T11:41:54.240Z,57.18
2023-09-16T11:44:22.147Z,57.92
2023-09-16T11:46:50.504Z,56.94
2023-09-16T11:49:18.503Z,56.50
2023-09-16T11:51:52.102Z,56.37
2023-09-16T11:54:20.052Z,57.26
2023-09-16T11:56:49.038Z,59.35
2023-09-16T11:59:16.926Z,57.69
2023-09-16T12:01:44.897Z,57.51
2023-09-16T12:04:16.393Z,57.38
2023-09-16T12:06:45.408Z,56.63
2023-09-16T12:09:17.214Z,56.93
2023-09-16T12:11:50.717Z,56.59
2023-09-16T12:14:20.019Z,56.99
2023-09-16T12:16:48.182Z,56.10
2023-09-16T12:19:17.230Z,56.30
2023-09-16T12:21:49.151Z,56.44
2023-09-16T12:24:21.231Z,56.05
2023-09-16T12:26:49.888Z,56.37
2023-09-16T12:29:17.574Z,56.13
2023-09-16T12:31:46.817Z,55.87
2023-09-16T12:34:19.137Z,55.51
2023-09-16T12:36:52.208Z,55.60
2023-09-16T12:39:22.984Z,56.73
2023-09-16T12:42:04.455Z,55.96
2023-09-16T12:44:33.645Z,56.53
2023-09-16T12:47:04.599Z,54.82
2023-09-16T12:49:33.032Z,54.81
2023-09-16T12:52:00.925Z,55.62
2023-09-16T12:54:31.697Z,54.75
2023-09-16T12:56:59.440Z,53.49
2023-09-16T12:59:27.345Z,55.75
2023-09-16T13:01:55.701Z,54.09
2023-09-16T13:04:25.276Z,53.70
2023-09-16T13:06:54.425Z,53.16
2023-09-16T13:09:22.559Z,53.74
2023-09-16T13:11:52.038Z,53.22
2023-09-16T13:14:20.518Z,53.88
2023-09-16T13:16:48.550Z,52.34
2023-09-16T13:19:22.085Z,51.98
2023-09-16T13:21:51.918Z,52.58
2023-09-16T13:24:19.718Z,52.05
2023-09-16T13:26:50.954Z,51.19
2023-09-16T13:29:18.699Z,52.00
2023-09-16T13:31:47.083Z,51.39
2023-09-16T13:34:14.805Z,50.58
2023-09-16T13:36:43.315Z,51.33
2023-09-16T13:39:12.546Z,50.27
2023-09-16T13:41:41.639Z,49.63
2023-09-16T13:44:09.992Z,49.93
2023-09-16T13:46:37.717Z,50.23
2023-09-16T13:49:05.693Z,49.51
2023-09-16T13:51:33.473Z,50.29
2023-09-16T13:54:01.322Z,50.15
2023-09-16T13:56:31.192Z,49.71
2023-09-16T13:58:58.945Z,49.56
2023-09-16T14:01:27.590Z,48.82
2023-09-16T14:03:55.546Z,49.68
2023-09-16T14:06:23.893Z,48.78
2023-09-16T14:08:51.917Z,49.69
2023-09-16T14:11:20.862Z,49.82
2023-09-16T14:13:50.184Z,49.78
2023-09-16T14:16:17.825Z,49.61
2023-09-16T14:18:45.892Z,49.54
2023-09-16T14:21:13.626Z,50.14
2023-09-16T14:23:41.352Z,49.81
2023-09-16T14:26:09.132Z,49.92
2023-09-16T14:28:36.692Z,49.85
2023-09-16T14:31:08.826Z,48.92
2023-09-16T14:33:36.942Z,48.89
2023-09-16T14:36:05.472Z,48.98
2023-09-16T14:38:33.240Z,49.30
2023-09-16T14:41:05.519Z,48.50
2023-09-16T14:43:33.219Z,49.31
2023-09-16T14:46:00.931Z,49.11
2023-09-16T14:48:30.224Z,50.29
2023-09-16T14:50:57.949Z,50.90
2023-09-16T14:53:25.722Z,51.06
2023-09-16T14:55:53.450Z,51.39
2023-09-16T14:58:21.394Z,51.80
2023-09-16T15:00:49.330Z,52.23
2023-09-16T15:03:17.139Z,52.86
2023-09-16T15:05:46.270Z,52.09
2023-09-16T15:08:14.055Z,52.42
2023-09-16T15:10:43.201Z,51.83
2023-09-16T15:13:11.932Z,52.67
2023-09-16T15:15:39.727Z,51.92
2023-09-16T15:18:07.660Z,52.88
2023-09-16T15:20:35.285Z,53.28
2023-09-16T15:23:04.565Z,54.81
2023-09-16T15:25:32.282Z,55.22
2023-09-16T15:28:00.011Z,52.58
2023-09-16T15:30:28.404Z,51.48
2023-09-16T15:32:56.252Z,51.69
2023-09-16T15:35:24.506Z,50.68
2023-09-16T15:37:52.374Z,50.39
2023-09-16T15:40:21.481Z,50.89
2023-09-16T15:42:50.416Z,50.87
2023-09-16T15:45:18.896Z,51.15
2023-09-16T15:47:46.618Z,51.16
2023-09-16T15:50:15.520Z,52.23
2023-09-16T15:52:43.233Z,52.24
2023-09-16T15:55:11.050Z,51.52
2023-09-16T15:57:40.564Z,51.42
2023-09-16T16:00:09.360Z,50.86
2023-09-16T16:02:37.944Z,51.44
2023-09-16T16:05:06.949Z,51.39
2023-09-16T16:07:34.760Z,51.31
2023-09-16T16:10:04.090Z,51.60
2023-09-16T16:12:31.748Z,52.08
2023-09-16T16:15:00.789Z,51.67
2023-09-16T16:17:29.718Z,52.33
2023-09-16T16:19:57.481Z,52.06
2023-09-16T16:22:25.192Z,52.74
2023-09-16T16:24:52.986Z,52.26
2023-09-16T16:27:20.914Z,52.51
2023-09-16T16:29:48.985Z,52.40
2023-09-16T16:32:19.207Z,53.27
2023-09-16T16:34:47.553Z,53.78
2023-09-16T16:37:15.584Z,54.19
2023-09-16T16:39:43.185Z,54.24
2023-09-16T16:42:10.817Z,54.32
2023-09-16T16:44:40.695Z,54.39
2023-09-16T16:47:08.454Z,54.89
2023-09-16T16:49:37.539Z,55.78
2023-09-16T16:52:05.519Z,57.18
2023-09-16T16:54:34.127Z,56.85
2023-09-16T16:57:03.187Z,57.68
2023-09-16T16:59:30.897Z,58.62
2023-09-16T17:01:59.122Z,59.77
2023-09-16T17:04:26.935Z,59.57
2023-09-16T17:06:55.959Z,60.51
2023-09-16T17:09:24.259Z,60.76
2023-09-16T17:11:51.896Z,60.61
2023-09-16T17:14:19.585Z,60.96
2023-09-16T17:16:47.726Z,61.63
2023-09-16T17:19:15.465Z,61.62
2023-09-16T17:21:43.225Z,61.84
2023-09-16T17:24:12.338Z,62.06
2023-09-16T17:26:40.030Z,62.92
2023-09-16T17:29:07.891Z,63.21
2023-09-16T17:31:35.891Z,63.33
2023-09-16T17:34:03.929Z,63.59
2023-09-16T17:36:31.982Z,64.38
2023-09-16T17:38:59.843Z,64.77
2023-09-16T17:41:29.175Z,64.20
2023-09-16T17:43:56.836Z,64.73
2023-09-16T17:46:24.692Z,64.79
2023-09-16T17:48:53.039Z,64.90
2023-09-16T17:51:20.870Z,65.25
2023-09-16T17:53:50.214Z,64.91
2023-09-16T17:56:18.493Z,65.99
2023-09-16T17:58:47.554Z,66.83
2023-09-16T18:01:15.409Z,67.42
2023-09-16T18:03:43.530Z,67.28
2023-09-16T18:06:11.206Z,68.37
2023-09-16T18:08:39.703Z,67.37
2023-09-16T18:11:07.602Z,67.14
2023-09-16T18:13:35.304Z,67.12
2023-09-16T18:16:05.776Z,66.77
2023-09-16T18:18:33.524Z,66.83
2023-09-16T18:21:01.573Z,67.43
2023-09-16T18:23:32.607Z,67.20
2023-09-16T18:26:01.131Z,67.40
2023-09-16T18:28:29.624Z,67.81
2023-09-16T18:30:57.437Z,68.66
2023-09-16T18:33:28.514Z,68.66
2023-09-16T18:35:56.292Z,68.84
2023-09-16T18:38:24.791Z,68.38
2023-09-16T18:40:52.593Z,68.91
2023-09-16T18:43:20.720Z,69.05
2023-09-16T18:45:48.858Z,68.85
2023-09-16T18:48:17.265Z,68.46
2023-09-16T18:50:46.290Z,69.11
2023-09-16T18:53:14.010Z,69.00
2023-09-16T18:55:45.199Z,68.46
2023-09-16T18:58:14.568Z,68.41
2023-09-16T19:00:43.961Z,68.08
2023-09-16T19:03:11.994Z,68.35
2023-09-16T19:05:40.958Z,68.05
2023-09-16T19:08:11.331Z,68.95
2023-09-16T19:10:40.783Z,68.74
2023-09-16T19:13:09.067Z,68.67
2023-09-16T19:15:37.555Z,68.22
2023-09-16T19:18:06.044Z,68.17
2023-09-16T19:20:33.718Z,67.71
2023-09-16T19:23:02.193Z,67.49
2023-09-16T19:25:31.261Z,67.54
2023-09-16T19:28:00.135Z,67.35
2023-09-16T19:30:28.227Z,68.17
2023-09-16T19:32:57.781Z,67.24
2023-09-16T19:35:26.075Z,67.73
2023-09-16T19:37:54.184Z,68.05
2023-09-16T19:40:23.122Z,68.94
2023-09-16T19:42:52.445Z,68.98
2023-09-16T19:45:20.034Z,69.52
2023-09-16T19:47:47.886Z,69.49
2023-09-16T19:50:15.800Z,69.83
2023-09-16T19:52:43.437Z,69.54
2023-09-16T19:55:11.163Z,70.10
2023-09-16T19:57:38.934Z,69.81
2023-09-16T20:00:10.605Z,69.68
2023-09-16T20:02:38.685Z,70.64
2023-09-16T20:05:08.567Z,71.20
2023-09-16T20:07:36.362Z,71.40
2023-09-16T20:10:04.367Z,71.62
2023-09-16T20:12:32.224Z,71.53
2023-09-16T20:14:59.952Z,71.89
2023-09-16T20:17:29.146Z,71.69
2023-09-16T20:19:56.887Z,71.80
2023-09-16T20:22:24.631Z,71.96
2023-09-16T20:24:52.276Z,72.28
2023-09-16T20:27:20.356Z,73.42
2023-09-16T20:29:48.425Z,73.35
2023-09-16T20:32:16.385Z,74.42
2023-09-16T20:34:46.896Z,74.97
2023-09-16T20:37:14.787Z,76.50
2023-09-16T20:39:42.584Z,77.77
2023-09-16T20:42:11.422Z,79.78
2023-09-16T20:44:39.347Z,81.14
2023-09-16T20:47:09.248Z,84.51
2023-09-16T20:49:37.616Z,85.39
2023-09-16T20:52:07.196Z,86.85
2023-09-16T20:54:35.004Z,88.14
2023-09-16T20:57:04.197Z,89.15
2023-09-16T20:59:34.245Z,90.33
2023-09-16T21:02:04.171Z,91.06
2023-09-16T21:04:32.976Z,92.79
2023-09-16T21:07:00.775Z,96.27
2023-09-16T21:09:29.817Z,99.01
2023-09-16T21:11:57.670Z,100.00
2023-09-16T21:14:26.897Z,99.94
2023-09-16T21:16:55.750Z,99.88
2023-09-16T21:19:23.643Z,99.61
2023-09-16T21:21:51.616Z,100.00
2023-09-16T21:24:19.468Z,100.00
2023-09-16T21:26:50.561Z,100.00
2023-09-16T21:29:19.701Z,100.00
2023-09-16T21:31:59.357Z,100.00
2023-09-16T21:34:29.691Z,100.00
2023-09-16T21:36:58.193Z,100.00
2023-09-16T21:39:25.914Z,100.00
2023-09-16T21:41:55.192Z,100.00
2023-09-16T21:44:24.228Z,100.00
2023-09-16T21:46:52.031Z,100.00
2023-09-16T21:49:19.931Z,100.00
2023-09-16T21:51:47.595Z,100.00
2023-09-16T21:54:15.165Z,100.00
2023-09-16T21:56:43.159Z,100.00
2023-09-16T21:59:12.247Z,100.00
2023-09-16T22:01:40.033Z,100.00
2023-09-16T22:04:07.783Z,100.00
2023-09-16T22:06:35.431Z,100.00
2023-09-16T22:09:03.078Z,100.00
2023-09-16T22:11:30.734Z,100.00
2023-09-16T22:13:58.477Z,100.00
2023-09-16T22:16:28.118Z,100.00
2023-09-16T22:18:55.857Z,100.00
2023-09-16T22:21:23.523Z,100.00
2023-09-16T22:23:51.417Z,100.00
2023-09-16T22:26:19.358Z,100.00
2023-09-16T22:28:47.066Z,100.00
2023-09-16T22:31:15.898Z,100.00
2023-09-16T22:33:45.278Z,100.00
2023-09-16T22:36:13.031Z,100.00
2023-09-16T22:38:40.752Z,100.00
2023-09-16T22:41:08.740Z,100.00
2023-09-16T22:43:36.378Z,100.00
2023-09-16T22:46:04.182Z,100.00
2023-09-16T22:48:31.978Z,100.00
2023-09-16T22:51:00.931Z,100.00
2023-09-16T22:53:28.579Z,100.00
2023-09-16T22:55:59.377Z,100.00
2023-09-16T22:58:27.126Z,100.00
2023-09-16T23:00:54.849Z,100.00
2023-09-16T23:03:22.858Z,100.00
2023-09-16T23:05:50.711Z,100.00
2023-09-16T23:08:19.654Z,100.00
2023-09-16T23:10:47.294Z,100.00
2023-09-16T23:13:15.040Z,100.00
2023-09-16T23:15:42.725Z,100.00
2023-09-16T23:18:10.652Z,100.00
2023-09-16T23:20:39.931Z,100.00
2023-09-16T23:23:09.144Z,100.00
2023-09-16T23:25:38.162Z,100.00
2023-09-16T23:28:06.579Z,100.00
2023-09-16T23:30:34.411Z,100.00
2023-09-16T23:33:02.137Z,100.00
2023-09-16T23:35:29.845Z,100.00
2023-09-16T23:37:57.732Z,100.00
2023-09-16T23:40:26.454Z,100.00
2023-09-16T23:42:55.436Z,100.00
2023-09-16T23:45:23.184Z,100.00
2023-09-16T23:47:50.827Z,100.00
2023-09-16T23:50:18.667Z,100.00
2023-09-16T23:52:46.405Z,100.00
2023-09-16T23:55:14.526Z,100.00
2023-09-16T23:57:42.290Z,100.00
